Pagina principale
METAR-TAF:

METAR-TAF

Aeroporti :

Corinth, Mississippi, Stati Uniti

latitudine: 34-54-54N, longitudine: 088-36-13W, altezza: 130 m

Osservazione

Il bollettino è stato emesso 33 minuti fa, alle 22:15 UTC
Vento 5 kt da ovest/nord-ovest
Temperature 15°C
Umidità 63%
Pressione 1023 hPa
Visibilità: 16.1 km
Cielo sereno

METAR: KCRX 162215Z AUTO 30005KT 10SM CLR 15/08 A3021 RMK AO2

Ora: 16:48 (22:48 UTC)


TAF: mancante

Osservazioni e previsioni meteorologiche di più di 4000 aeroporti (messaggi METAR e TAF).

Le stazioni disponibili sono rappresentate dai dischi gialli e rossi sulla carta.

Puntare il mouse per vedere il nome della stazione.

Clicca sopra per visualizzare le osservazioni e previsioni meteorologiche.

Per cambiare la mappa : fare clic sui pulsanti verdi con una croce nera per ingrandire, il pulsante verde con un trattino per diminuire, o sulla freccia verde per le mappe adiacenti.


METAR-TAF: